logo
Search for airport 
image banner adimage banner adimage banner ad
image banner ad

DNBY - Amassoma / Bayelsa

Located in Yenagoa, Nigeria

ICAO - , IATA - BYS

Data provided by Airmate  

General information

Coordinates: N4°57'28" E6°12'12"
Elevation is 25 feet MSL.
 
View others Airports in Rivers

Operational data

Special qualification required
Current time UTC:
Current local time:
Weather at : - ( 0 km )
METAR: OPLA 140225Z 34010KT 5000 FU SCT040 BKN100 20/16 Q1014 TEMPO 33015G35KT 2000 TSRA FEW030CB RMK QFE988 A29.95
View NOTAMs / SUP AIP / TFR affecting this airport [VIEW]
Communications frequencies: [VIEW]

Runways:

RWY identifierQFULength (ft)Width (ft)SurfaceLDA (ft)
0660°9843148UNK
24240°9843148UNK

Airport contact information

Address: Yenagoa Nigeria

Satellite view of DNBY